createdAt,value
2018-12-12T00:00:31.941Z,20.57
2018-12-12T00:03:00.729Z,19.70
2018-12-12T00:05:29.364Z,19.33
2018-12-12T00:07:58.067Z,20.53
2018-12-12T00:10:26.729Z,21.07
2018-12-12T00:12:55.455Z,19.73
2018-12-12T00:15:24.518Z,21.37
2018-12-12T00:17:53.733Z,21.20
2018-12-12T00:20:22.354Z,22.20
2018-12-12T00:22:51.215Z,21.37
2018-12-12T00:25:19.889Z,19.73
2018-12-12T00:27:48.757Z,19.13
2018-12-12T00:30:17.585Z,21.23
2018-12-12T00:32:46.516Z,21.80
2018-12-12T00:35:15.486Z,20.37
2018-12-12T00:37:44.098Z,20.73
2018-12-12T00:40:12.840Z,22.53
2018-12-12T00:42:41.412Z,22.27
2018-12-12T00:45:10.305Z,23.93
2018-12-12T00:47:39.124Z,22.23
2018-12-12T00:50:07.996Z,23.20
2018-12-12T00:52:36.648Z,22.27
2018-12-12T00:55:05.308Z,23.47
2018-12-12T00:57:34.486Z,21.17
2018-12-12T01:00:03.376Z,23.40
2018-12-12T01:02:32.047Z,22.60
2018-12-12T01:05:00.703Z,21.97
2018-12-12T01:07:29.388Z,20.03
2018-12-12T01:09:58.060Z,20.47
2018-12-12T01:12:26.651Z,20.87
2018-12-12T01:14:55.405Z,21.13
2018-12-12T01:17:24.026Z,20.73
2018-12-12T01:19:53.226Z,19.37
2018-12-12T01:22:21.725Z,22.77
2018-12-12T01:24:50.397Z,20.87
2018-12-12T01:27:19.227Z,20.37
2018-12-12T01:29:47.802Z,19.67
2018-12-12T01:32:16.328Z,21.40
2018-12-12T01:34:45.217Z,19.87
2018-12-12T01:37:14.204Z,17.63
2018-12-12T01:39:43.071Z,19.90
2018-12-12T01:42:11.765Z,18.10
2018-12-12T01:44:40.342Z,19.00
2018-12-12T01:47:09.022Z,19.50
2018-12-12T01:49:37.902Z,18.00
2018-12-12T01:52:06.650Z,19.27
2018-12-12T01:54:35.435Z,18.53
2018-12-12T01:57:04.212Z,16.97
2018-12-12T01:59:32.965Z,18.23
2018-12-12T02:02:01.652Z,18.03
2018-12-12T02:04:30.258Z,16.83
2018-12-12T02:06:59.265Z,16.47
2018-12-12T02:09:27.915Z,18.13
2018-12-12T02:11:56.448Z,17.67
2018-12-12T02:14:25.154Z,15.27
2018-12-12T02:16:53.676Z,16.30
2018-12-12T02:19:22.280Z,17.43
2018-12-12T02:21:51.003Z,16.83
2018-12-12T02:24:19.651Z,17.35
2018-12-12T02:26:48.305Z,16.67
2018-12-12T02:29:17.055Z,15.07
2018-12-12T02:31:45.838Z,18.30
2018-12-12T02:34:14.680Z,16.93
2018-12-12T02:36:43.300Z,16.70
2018-12-12T02:39:11.825Z,16.40
2018-12-12T02:41:40.420Z,17.73
2018-12-12T02:44:09.032Z,17.70
2018-12-12T02:46:37.881Z,17.13
2018-12-12T02:49:06.712Z,16.60
2018-12-12T02:51:35.531Z,18.40
2018-12-12T02:54:04.155Z,16.87
2018-12-12T02:56:32.811Z,16.83
2018-12-12T02:59:01.545Z,17.33
2018-12-12T03:01:30.195Z,17.63
2018-12-12T03:03:59.053Z,19.00
2018-12-12T03:06:27.606Z,17.00
2018-12-12T03:08:56.192Z,17.83
2018-12-12T03:11:24.956Z,18.13
2018-12-12T03:13:53.969Z,19.33
2018-12-12T03:16:22.896Z,19.10
2018-12-12T03:18:51.822Z,18.43
2018-12-12T03:21:20.500Z,20.33
2018-12-12T03:23:49.085Z,17.60
2018-12-12T03:26:18.054Z,17.60
2018-12-12T03:28:46.897Z,18.20
2018-12-12T03:31:15.461Z,17.47
2018-12-12T03:33:44.229Z,18.10
2018-12-12T03:36:12.906Z,18.23
2018-12-12T03:38:41.748Z,17.33
2018-12-12T03:41:10.458Z,16.93
2018-12-12T03:43:39.203Z,17.67
2018-12-12T03:46:07.832Z,18.97
2018-12-12T03:48:36.620Z,19.50
2018-12-12T03:51:05.284Z,18.20
2018-12-12T03:53:34.027Z,16.53
2018-12-12T03:56:02.861Z,17.20
2018-12-12T03:58:31.478Z,16.07
2018-12-12T04:01:00.257Z,16.57
2018-12-12T04:03:28.906Z,16.83
2018-12-12T04:05:57.481Z,16.63
2018-12-12T04:08:26.260Z,15.23
2018-12-12T04:10:54.834Z,17.10
2018-12-12T04:13:23.397Z,17.80
2018-12-12T04:15:52.031Z,18.77
2018-12-12T04:18:20.761Z,22.20
2018-12-12T04:20:49.449Z,18.60
2018-12-12T04:23:18.021Z,17.73
2018-12-12T04:25:46.898Z,16.80
2018-12-12T04:28:15.629Z,17.43
2018-12-12T04:30:44.314Z,18.40
2018-12-12T04:33:12.876Z,17.47
2018-12-12T04:35:41.603Z,17.47
2018-12-12T04:38:10.452Z,18.33
2018-12-12T04:40:39.210Z,18.40
2018-12-12T04:43:07.925Z,20.10
2018-12-12T04:45:36.585Z,19.57
2018-12-12T04:48:05.265Z,19.60
2018-12-12T04:50:34.241Z,20.77
2018-12-12T04:53:02.776Z,19.03
2018-12-12T04:55:31.536Z,20.57
2018-12-12T04:58:00.498Z,20.30
2018-12-12T05:00:30.067Z,21.63
2018-12-12T05:02:58.757Z,21.00
2018-12-12T05:05:27.497Z,21.07
2018-12-12T05:07:56.018Z,21.33
2018-12-12T05:10:24.829Z,21.07
2018-12-12T05:12:53.373Z,21.30
2018-12-12T05:15:21.925Z,21.67
2018-12-12T05:17:50.681Z,22.23
2018-12-12T05:20:19.429Z,21.53
2018-12-12T05:22:47.946Z,21.23
2018-12-12T05:25:16.549Z,22.53
2018-12-12T05:27:45.535Z,22.87
2018-12-12T05:30:14.243Z,23.97
2018-12-12T05:32:42.765Z,22.60
2018-12-12T05:35:11.484Z,21.93
2018-12-12T05:37:40.206Z,21.13
2018-12-12T05:40:09.328Z,24.13
2018-12-12T05:42:38.093Z,22.47
2018-12-12T05:45:07.126Z,21.03
2018-12-12T05:47:35.946Z,22.27
2018-12-12T05:50:04.838Z,20.57
2018-12-12T05:52:33.483Z,22.93
2018-12-12T05:55:01.995Z,21.73
2018-12-12T05:57:30.610Z,19.97
2018-12-12T05:59:59.310Z,21.43
2018-12-12T06:02:28.052Z,20.57
2018-12-12T06:04:56.905Z,20.27
2018-12-12T06:07:25.656Z,20.93
2018-12-12T06:09:54.251Z,19.87
2018-12-12T06:12:23.026Z,21.40
2018-12-12T06:14:51.740Z,22.60
2018-12-12T06:17:20.720Z,24.00
2018-12-12T06:19:49.751Z,22.07
2018-12-12T06:22:18.911Z,23.67
2018-12-12T06:24:47.462Z,21.40
2018-12-12T06:27:16.197Z,20.83
2018-12-12T06:29:44.868Z,21.50
2018-12-12T06:32:13.440Z,23.17
2018-12-12T06:34:42.030Z,21.67
2018-12-12T06:37:10.805Z,21.37
2018-12-12T06:39:39.620Z,21.93
2018-12-12T06:42:08.387Z,22.07
2018-12-12T06:44:37.155Z,22.23
2018-12-12T06:47:05.815Z,20.20
2018-12-12T06:49:34.441Z,21.07
2018-12-12T06:52:03.155Z,20.83
2018-12-12T06:54:32.028Z,22.83
2018-12-12T06:57:00.751Z,21.10
2018-12-12T06:59:29.418Z,20.10
2018-12-12T07:01:57.952Z,19.20
2018-12-12T07:04:26.563Z,20.53
2018-12-12T07:06:56.044Z,19.13
2018-12-12T07:09:24.925Z,20.33
2018-12-12T07:11:53.654Z,21.43
2018-12-12T07:14:22.330Z,18.23
2018-12-12T07:16:51.144Z,22.45
2018-12-12T07:19:19.970Z,18.67
2018-12-12T07:21:48.825Z,17.40
2018-12-12T07:24:17.446Z,18.50
2018-12-12T07:26:46.006Z,17.70
2018-12-12T07:29:14.878Z,19.97
2018-12-12T07:31:43.571Z,17.47
2018-12-12T07:34:12.270Z,19.00
2018-12-12T07:36:40.812Z,20.37
2018-12-12T07:39:09.684Z,17.37
2018-12-12T07:41:38.382Z,17.30
2018-12-12T07:44:07.168Z,20.72
2018-12-12T07:46:36.565Z,18.53
2018-12-12T07:49:05.892Z,17.20
2018-12-12T07:51:34.487Z,18.57
2018-12-12T07:54:03.210Z,18.30
2018-12-12T07:56:31.987Z,20.50
2018-12-12T07:59:00.762Z,19.30
2018-12-12T08:01:29.408Z,19.10
2018-12-12T08:03:58.059Z,17.67
2018-12-12T08:06:26.841Z,22.55
2018-12-12T08:08:55.519Z,18.17
2018-12-12T08:11:24.140Z,21.20
2018-12-12T08:13:52.686Z,20.00
2018-12-12T08:16:21.482Z,22.10
2018-12-12T08:18:50.138Z,18.93
2018-12-12T08:21:18.702Z,18.03
2018-12-12T08:23:47.389Z,18.73
2018-12-12T08:26:16.073Z,24.72
2018-12-12T08:28:44.637Z,23.17
2018-12-12T08:31:13.294Z,26.73
2018-12-12T08:33:41.897Z,21.90
2018-12-12T08:36:10.627Z,25.40
2018-12-12T08:38:39.308Z,23.13
2018-12-12T08:41:08.084Z,21.73
2018-12-12T08:43:36.775Z,23.42
2018-12-12T08:46:05.466Z,21.13
2018-12-12T08:48:34.016Z,22.65
2018-12-12T08:51:02.572Z,20.17
2018-12-12T08:53:31.287Z,23.42
2018-12-12T08:55:59.989Z,21.57
2018-12-12T08:58:28.582Z,21.70
2018-12-12T09:00:57.236Z,21.10
2018-12-12T09:03:25.828Z,22.53
2018-12-12T09:05:54.721Z,22.83
2018-12-12T09:08:23.549Z,21.77
2018-12-12T09:10:52.254Z,21.93
2018-12-12T09:13:20.995Z,23.10
2018-12-12T09:15:49.761Z,29.55
2018-12-12T09:18:18.502Z,25.43
2018-12-12T09:20:47.324Z,27.82
2018-12-12T09:23:16.184Z,23.90
2018-12-12T09:25:44.839Z,22.67
2018-12-12T09:28:13.518Z,25.95
2018-12-12T09:30:42.220Z,21.00
2018-12-12T09:33:10.934Z,22.57
2018-12-12T09:35:39.643Z,23.27
2018-12-12T09:38:08.320Z,21.33
2018-12-12T09:40:37.154Z,22.33
2018-12-12T09:43:05.997Z,19.17
2018-12-12T09:45:34.553Z,22.80
2018-12-12T09:48:03.432Z,22.80
2018-12-12T09:50:32.385Z,16.57
2018-12-12T09:53:01.197Z,19.33
2018-12-12T09:55:29.785Z,18.57
2018-12-12T09:57:58.851Z,16.50
2018-12-12T10:00:27.755Z,19.50
2018-12-12T10:02:56.310Z,20.10
2018-12-12T10:05:25.312Z,18.27
2018-12-12T10:07:54.029Z,18.30
2018-12-12T10:10:22.990Z,19.37
2018-12-12T10:12:51.647Z,18.13
2018-12-12T10:15:20.319Z,17.80
2018-12-12T10:17:49.012Z,19.50
2018-12-12T10:20:17.646Z,16.53
2018-12-12T10:22:46.563Z,15.60
2018-12-12T10:25:15.229Z,15.67
2018-12-12T10:27:43.875Z,16.73
2018-12-12T10:30:12.466Z,17.27
2018-12-12T10:32:41.459Z,15.73
2018-12-12T10:35:10.241Z,15.23
2018-12-12T10:37:39.126Z,15.03
2018-12-12T10:40:08.018Z,14.53
2018-12-12T10:42:36.910Z,16.10
2018-12-12T10:45:06.605Z,14.47
2018-12-12T10:47:35.503Z,15.67
2018-12-12T10:50:05.389Z,13.63
2018-12-12T10:52:34.121Z,14.70
2018-12-12T10:55:02.884Z,13.13
2018-12-12T10:57:31.598Z,12.60
2018-12-12T11:00:00.273Z,14.50
2018-12-12T11:02:35.064Z,12.17
2018-12-12T11:05:03.958Z,13.17
2018-12-12T11:07:32.655Z,13.00
2018-12-12T11:10:01.339Z,13.03
2018-12-12T11:12:29.969Z,12.47
2018-12-12T11:14:58.998Z,10.63
2018-12-12T11:17:27.652Z,10.60
2018-12-12T11:19:56.398Z,9.67
2018-12-12T11:22:25.206Z,9.03
2018-12-12T11:24:53.865Z,9.70
2018-12-12T11:27:22.455Z,7.00
2018-12-12T11:29:51.351Z,7.37
2018-12-12T11:32:20.163Z,7.67
2018-12-12T11:34:48.683Z,7.60
2018-12-12T11:37:17.230Z,6.60
2018-12-12T11:39:45.920Z,7.40
2018-12-12T11:42:14.718Z,6.67
2018-12-12T11:44:43.430Z,6.43
2018-12-12T11:47:12.092Z,5.87
2018-12-12T11:49:40.832Z,4.73
2018-12-12T11:52:09.588Z,4.90
2018-12-12T11:54:38.371Z,4.70
2018-12-12T11:57:08.148Z,4.60
2018-12-12T11:59:36.702Z,4.80
2018-12-12T12:02:06.045Z,4.10
2018-12-12T12:04:34.940Z,3.90
2018-12-12T12:07:03.513Z,4.43
2018-12-12T12:09:32.212Z,4.33
2018-12-12T12:12:00.956Z,3.77
2018-12-12T12:14:29.760Z,3.87
2018-12-12T12:16:58.562Z,4.73
2018-12-12T12:19:27.354Z,4.30
2018-12-12T12:21:55.945Z,3.73
2018-12-12T12:24:24.699Z,4.07
2018-12-12T12:26:53.381Z,3.73
2018-12-12T12:29:22.155Z,3.47
2018-12-12T12:31:50.690Z,4.37
2018-12-12T12:34:19.590Z,3.40
2018-12-12T12:36:48.521Z,2.93
2018-12-12T12:39:17.059Z,3.27
2018-12-12T12:41:45.757Z,2.70
2018-12-12T12:44:14.601Z,2.87
2018-12-12T12:46:43.340Z,3.03
2018-12-12T12:49:12.144Z,3.27
2018-12-12T12:51:40.754Z,2.70
2018-12-12T12:54:09.315Z,2.77
2018-12-12T12:56:38.009Z,2.93
2018-12-12T12:59:06.753Z,4.23
2018-12-12T13:01:35.519Z,4.10
2018-12-12T13:04:09.476Z,3.73
2018-12-12T13:06:34.934Z,2.60
2018-12-12T13:09:05.553Z,2.17
2018-12-12T13:11:34.092Z,2.37
2018-12-12T13:14:02.734Z,3.47
2018-12-12T13:16:31.422Z,2.87
2018-12-12T13:19:00.188Z,2.53
2018-12-12T13:21:28.726Z,2.40
2018-12-12T13:23:57.652Z,2.40
2018-12-12T13:26:26.390Z,2.47
2018-12-12T13:28:55.034Z,2.63
2018-12-12T13:31:23.774Z,2.43
2018-12-12T13:33:52.368Z,2.63
2018-12-12T13:36:20.979Z,2.20
2018-12-12T13:38:49.553Z,1.77
2018-12-12T13:41:18.068Z,2.37
2018-12-12T13:43:46.742Z,2.03
2018-12-12T13:46:15.292Z,1.87
2018-12-12T13:48:43.790Z,1.60
2018-12-12T13:51:12.315Z,1.97
2018-12-12T13:53:41.100Z,2.13
2018-12-12T13:56:09.769Z,1.70
2018-12-12T13:58:38.282Z,1.33
2018-12-12T14:01:06.852Z,1.47
2018-12-12T14:03:35.487Z,1.60
2018-12-12T14:06:04.406Z,2.27
2018-12-12T14:08:33.094Z,1.40
2018-12-12T14:11:01.790Z,1.50
2018-12-12T14:13:30.486Z,1.67
2018-12-12T14:15:59.171Z,1.83
2018-12-12T14:18:27.934Z,1.50
2018-12-12T14:20:56.702Z,1.80
2018-12-12T14:23:25.399Z,1.50
2018-12-12T14:25:54.052Z,1.50
2018-12-12T14:28:22.716Z,1.23
2018-12-12T14:30:51.397Z,1.13
2018-12-12T14:33:19.944Z,1.77
2018-12-12T14:35:48.549Z,1.80
2018-12-12T14:38:17.256Z,2.20
2018-12-12T14:40:45.789Z,1.63
2018-12-12T14:43:14.344Z,1.93
2018-12-12T14:45:42.887Z,1.80
2018-12-12T14:48:11.589Z,1.60
2018-12-12T14:50:40.344Z,2.27
2018-12-12T14:53:08.935Z,2.10
2018-12-12T14:55:37.489Z,1.73
2018-12-12T14:58:06.338Z,1.70
2018-12-12T15:00:34.942Z,2.00
2018-12-12T15:03:03.614Z,2.13
2018-12-12T15:05:32.375Z,1.80
2018-12-12T15:08:01.182Z,1.67
2018-12-12T15:10:29.953Z,2.00
2018-12-12T15:12:58.740Z,2.17
2018-12-12T15:15:27.631Z,1.60
2018-12-12T15:17:56.336Z,1.90
2018-12-12T15:20:25.332Z,3.73
2018-12-12T15:22:54.103Z,2.40
2018-12-12T15:25:22.724Z,2.10
2018-12-12T15:27:51.462Z,1.90
2018-12-12T15:30:20.254Z,2.30
2018-12-12T15:32:48.973Z,2.03
2018-12-12T15:35:17.825Z,2.37
2018-12-12T15:37:46.402Z,2.07
2018-12-12T15:40:15.128Z,2.30
2018-12-12T15:42:43.785Z,2.40
2018-12-12T15:45:12.679Z,1.83
2018-12-12T15:47:41.382Z,2.00
2018-12-12T15:50:10.281Z,1.83
2018-12-12T15:52:38.853Z,2.27
2018-12-12T15:55:07.400Z,1.93
2018-12-12T15:57:36.046Z,1.77
2018-12-12T16:00:05.575Z,2.10
2018-12-12T16:02:34.222Z,2.20
2018-12-12T16:05:02.803Z,1.97
2018-12-12T16:07:31.537Z,2.10
2018-12-12T16:10:00.286Z,1.90
2018-12-12T16:12:29.086Z,1.87
2018-12-12T16:14:57.715Z,2.30
2018-12-12T16:17:26.341Z,1.90
2018-12-12T16:19:54.869Z,2.52
2018-12-12T16:22:23.464Z,2.13
2018-12-12T16:24:52.194Z,1.97
2018-12-12T16:27:20.981Z,2.27
2018-12-12T16:29:49.658Z,2.43
2018-12-12T16:32:18.221Z,2.00
2018-12-12T16:34:47.061Z,2.80
2018-12-12T16:37:15.803Z,2.70
2018-12-12T16:39:44.577Z,2.77
2018-12-12T16:42:13.174Z,2.50
2018-12-12T16:44:41.871Z,2.60
2018-12-12T16:47:10.511Z,3.43
2018-12-12T16:49:39.055Z,2.63
2018-12-12T16:52:07.805Z,4.33
2018-12-12T16:54:36.321Z,3.30
2018-12-12T16:57:06.227Z,2.93
2018-12-12T16:59:35.000Z,3.10
2018-12-12T17:02:03.737Z,3.23
2018-12-12T17:04:32.304Z,4.10
2018-12-12T17:07:01.085Z,3.80
2018-12-12T17:09:29.775Z,4.50
2018-12-12T17:11:58.526Z,3.37
2018-12-12T17:14:27.232Z,3.00
2018-12-12T17:16:55.830Z,3.47
2018-12-12T17:19:24.310Z,3.80
2018-12-12T17:21:53.095Z,3.80
2018-12-12T17:24:21.876Z,4.20
2018-12-12T17:26:50.475Z,4.07
2018-12-12T17:29:19.375Z,3.70
2018-12-12T17:31:47.951Z,3.63
2018-12-12T17:34:16.828Z,3.80
2018-12-12T17:36:45.464Z,3.53
2018-12-12T17:39:14.067Z,3.93
2018-12-12T17:41:42.594Z,4.07
2018-12-12T17:44:11.298Z,4.07
2018-12-12T17:46:40.170Z,5.30
2018-12-12T17:49:08.858Z,4.90
2018-12-12T17:51:37.631Z,7.57
2018-12-12T17:54:06.442Z,5.80
2018-12-12T17:56:35.413Z,5.37
2018-12-12T17:59:04.128Z,5.47
2018-12-12T18:01:32.842Z,5.63
2018-12-12T18:04:01.617Z,6.28
2018-12-12T18:06:30.393Z,5.80
2018-12-12T18:08:59.347Z,5.60
2018-12-12T18:11:28.263Z,6.53
2018-12-12T18:13:57.008Z,7.20
2018-12-12T18:16:25.732Z,7.43
2018-12-12T18:18:54.646Z,10.10
2018-12-12T18:21:23.516Z,13.03
2018-12-12T18:23:52.321Z,15.08
2018-12-12T18:26:20.945Z,14.07
2018-12-12T18:28:49.610Z,16.70
2018-12-12T18:31:18.336Z,14.40
2018-12-12T18:33:46.976Z,11.90
2018-12-12T18:36:15.739Z,11.33
2018-12-12T18:38:45.241Z,11.13
2018-12-12T18:41:13.783Z,10.95
2018-12-12T18:43:42.378Z,9.30
2018-12-12T18:46:11.242Z,8.97
2018-12-12T18:48:40.007Z,7.50
2018-12-12T18:51:09.080Z,7.03
2018-12-12T18:53:38.016Z,6.27
2018-12-12T18:56:07.085Z,6.53
2018-12-12T18:58:36.054Z,6.60
2018-12-12T19:01:05.141Z,6.93
2018-12-12T19:03:34.259Z,6.07
2018-12-12T19:06:03.418Z,7.60
2018-12-12T19:08:32.443Z,6.63
2018-12-12T19:11:01.435Z,6.53
2018-12-12T19:13:30.643Z,6.13
2018-12-12T19:15:59.735Z,6.67
2018-12-12T19:18:28.726Z,7.53
2018-12-12T19:21:00.172Z,6.87
2018-12-12T19:23:29.309Z,6.87
2018-12-12T19:25:58.364Z,6.70
2018-12-12T19:28:27.466Z,6.70
2018-12-12T19:30:56.488Z,7.10
2018-12-12T19:33:25.575Z,6.77
2018-12-12T19:35:54.662Z,6.07
2018-12-12T19:38:23.888Z,6.43
2018-12-12T19:40:52.958Z,6.53
2018-12-12T19:43:22.033Z,6.00
2018-12-12T19:45:51.553Z,6.83
2018-12-12T19:48:20.554Z,6.73
2018-12-12T19:50:49.509Z,6.50
2018-12-12T19:53:18.399Z,6.67
2018-12-12T19:55:47.431Z,7.13
2018-12-12T19:58:16.406Z,7.27
2018-12-12T20:00:45.247Z,6.40
2018-12-12T20:03:14.405Z,7.35
2018-12-12T20:05:43.594Z,6.63
2018-12-12T20:08:12.816Z,8.75
2018-12-12T20:10:41.735Z,9.37
2018-12-12T20:13:10.906Z,9.40
2018-12-12T20:15:46.778Z,8.97
2018-12-12T20:21:01.039Z,8.83
2018-12-12T20:23:30.112Z,8.70
2018-12-12T20:26:01.517Z,8.40
2018-12-12T20:28:31.069Z,8.57
2018-12-12T20:31:00.303Z,9.63
2018-12-12T20:33:29.376Z,8.37
2018-12-12T20:35:58.210Z,8.73
2018-12-12T20:38:27.368Z,8.20
2018-12-12T20:40:56.312Z,8.33
2018-12-12T20:43:25.449Z,7.70
2018-12-12T20:45:54.631Z,8.00
2018-12-12T20:48:23.841Z,7.90
2018-12-12T20:50:52.836Z,7.83
2018-12-12T20:53:21.791Z,7.23
2018-12-12T20:55:50.742Z,7.60
2018-12-12T20:58:19.788Z,8.07
2018-12-12T21:00:48.881Z,7.93
2018-12-12T21:03:18.019Z,8.70
2018-12-12T21:05:47.160Z,7.47
2018-12-12T21:08:16.186Z,8.70
2018-12-12T21:10:45.379Z,7.47
2018-12-12T21:13:14.272Z,8.07
2018-12-12T21:15:47.685Z,8.03
2018-12-12T21:18:16.737Z,7.43
2018-12-12T21:20:45.865Z,9.10
2018-12-12T21:23:15.001Z,10.00
2018-12-12T21:25:44.393Z,9.15
2018-12-12T21:28:13.362Z,8.63
2018-12-12T21:30:42.473Z,7.40
2018-12-12T21:33:11.567Z,8.20
2018-12-12T21:35:40.634Z,7.67
2018-12-12T21:38:09.836Z,8.13
2018-12-12T21:40:38.844Z,8.33
2018-12-12T21:43:07.936Z,7.57
2018-12-12T21:45:37.009Z,7.53
2018-12-12T21:48:06.241Z,6.60
2018-12-12T21:50:35.429Z,7.17
2018-12-12T21:53:04.443Z,8.20
2018-12-12T21:55:33.572Z,7.97
2018-12-12T21:58:02.648Z,8.30
2018-12-12T22:00:31.593Z,8.90
2018-12-12T22:03:00.607Z,9.63
2018-12-12T22:05:29.672Z,9.27
2018-12-12T22:07:58.626Z,11.17
2018-12-12T22:10:27.824Z,10.90
2018-12-12T22:12:56.897Z,10.93
2018-12-12T22:15:25.881Z,10.23
2018-12-12T22:17:55.197Z,12.70
2018-12-12T22:20:24.058Z,11.87
2018-12-12T22:22:53.130Z,12.57
2018-12-12T22:25:22.082Z,11.10
2018-12-12T22:27:51.163Z,12.00
2018-12-12T22:30:20.237Z,11.17
2018-12-12T22:32:49.227Z,12.37
2018-12-12T22:35:18.234Z,12.87
2018-12-12T22:37:47.323Z,11.90
2018-12-12T22:40:16.369Z,13.63
2018-12-12T22:42:45.304Z,12.63
2018-12-12T22:45:14.429Z,11.73
2018-12-12T22:47:43.534Z,12.43
2018-12-12T22:50:12.441Z,12.73
2018-12-12T22:52:41.407Z,12.47
2018-12-12T22:55:10.370Z,12.43
2018-12-12T22:57:39.469Z,14.60
2018-12-12T23:00:13.964Z,14.13
2018-12-12T23:02:43.040Z,13.57
2018-12-12T23:05:11.994Z,13.13
2018-12-12T23:07:40.970Z,13.40
2018-12-12T23:10:09.988Z,12.57
2018-12-12T23:12:38.937Z,13.10
2018-12-12T23:15:08.269Z,12.93
2018-12-12T23:17:37.239Z,13.10
2018-12-12T23:20:07.085Z,13.43
2018-12-12T23:22:36.257Z,13.33
2018-12-12T23:25:05.336Z,14.23
2018-12-12T23:27:34.227Z,14.53
2018-12-12T23:30:04.469Z,11.00
2018-12-12T23:32:33.565Z,14.00
2018-12-12T23:35:02.600Z,14.27
2018-12-12T23:37:31.876Z,13.87
2018-12-12T23:40:00.909Z,13.27
2018-12-12T23:42:29.840Z,13.57
2018-12-12T23:44:58.918Z,13.57
2018-12-12T23:47:27.842Z,14.07
2018-12-12T23:49:56.846Z,14.07
2018-12-12T23:52:25.813Z,13.47
2018-12-12T23:54:54.825Z,12.67
2018-12-12T23:57:23.834Z,14.13
2018-12-12T23:59:52.775Z,14.10
